createdAt,value
2022-10-20T00:00:15.756Z,9.20
2022-10-20T00:01:17.984Z,9.53
2022-10-20T00:02:19.317Z,10.10
2022-10-20T00:03:20.670Z,9.30
2022-10-20T00:04:22.032Z,10.03
2022-10-20T00:05:23.361Z,9.70
2022-10-20T00:06:26.200Z,9.10
2022-10-20T00:07:27.499Z,9.57
2022-10-20T00:08:28.827Z,9.07
2022-10-20T00:09:30.185Z,9.00
2022-10-20T00:10:31.934Z,9.63
2022-10-20T00:11:33.690Z,9.20
2022-10-20T00:12:35.440Z,9.30
2022-10-20T00:13:37.710Z,9.17
2022-10-20T00:14:39.054Z,9.70
2022-10-20T00:15:40.396Z,9.30
2022-10-20T00:16:41.795Z,8.93
2022-10-20T00:17:44.869Z,9.60
2022-10-20T00:18:46.215Z,9.53
2022-10-20T00:19:48.044Z,8.80
2022-10-20T00:20:49.752Z,8.70
2022-10-20T00:21:51.144Z,9.10
2022-10-20T00:22:52.509Z,9.43
2022-10-20T00:23:54.131Z,9.10
2022-10-20T00:24:55.453Z,8.93
2022-10-20T00:26:00.554Z,8.77
2022-10-20T00:27:01.858Z,9.17
2022-10-20T00:28:03.192Z,8.53
2022-10-20T00:29:04.709Z,9.13
2022-10-20T00:30:06.862Z,8.60
2022-10-20T00:31:08.241Z,8.63
2022-10-20T00:32:09.664Z,9.47
2022-10-20T00:33:11.035Z,8.57
2022-10-20T00:34:12.418Z,8.20
2022-10-20T00:35:13.785Z,9.40
2022-10-20T00:36:16.031Z,9.20
2022-10-20T00:37:17.332Z,8.30
2022-10-20T00:39:25.033Z,9.27
2022-10-20T00:40:26.545Z,9.00
2022-10-20T00:41:28.478Z,10.20
2022-10-20T00:42:29.983Z,9.10
2022-10-20T00:43:44.878Z,8.77
2022-10-20T00:44:51.070Z,9.43
2022-10-20T00:45:56.195Z,8.33
2022-10-20T00:46:57.579Z,9.30
2022-10-20T00:48:00.602Z,8.80
2022-10-20T00:49:04.981Z,8.40
2022-10-20T00:50:09.407Z,8.63
2022-10-20T00:51:12.431Z,9.30
2022-10-20T00:52:14.579Z,9.40
2022-10-20T00:53:16.984Z,8.70
2022-10-20T00:54:19.674Z,9.10
2022-10-20T00:55:23.411Z,8.37
2022-10-20T00:56:24.723Z,9.43
2022-10-20T00:57:26.041Z,8.90
2022-10-20T00:58:27.821Z,8.07
2022-10-20T00:59:33.053Z,9.47
2022-10-20T01:00:34.513Z,9.57
2022-10-20T01:01:37.651Z,9.17
2022-10-20T01:02:39.147Z,8.90
2022-10-20T01:03:45.740Z,8.90
2022-10-20T01:04:47.197Z,9.40
2022-10-20T01:05:48.463Z,9.43
2022-10-20T01:06:49.788Z,8.70
2022-10-20T01:07:51.082Z,9.10
2022-10-20T01:08:53.881Z,9.40
2022-10-20T01:09:55.656Z,9.17
2022-10-20T01:11:16.645Z,8.83
2022-10-20T01:12:25.103Z,9.13
2022-10-20T01:13:31.417Z,8.60
2022-10-20T01:14:36.042Z,8.93
2022-10-20T01:15:44.506Z,8.93
2022-10-20T01:16:51.833Z,8.73
2022-10-20T01:18:04.937Z,8.93
2022-10-20T01:19:38.626Z,8.57
2022-10-20T01:20:55.963Z,9.23
2022-10-20T01:22:15.895Z,9.00
2022-10-20T01:23:22.945Z,9.47
2022-10-20T01:24:43.089Z,9.17
2022-10-20T01:25:47.417Z,9.53
2022-10-20T01:26:57.932Z,9.67
2022-10-20T01:28:03.807Z,8.87
2022-10-20T01:29:19.313Z,9.30
2022-10-20T01:30:21.971Z,9.53
2022-10-20T01:31:23.323Z,9.20
2022-10-20T01:32:29.935Z,8.77
2022-10-20T01:33:37.183Z,9.23
2022-10-20T01:34:48.076Z,9.77
2022-10-20T01:35:59.744Z,9.60
2022-10-20T01:37:28.316Z,9.70
2022-10-20T01:38:44.197Z,9.13
2022-10-20T01:40:04.276Z,9.67
2022-10-20T01:41:05.545Z,9.10
2022-10-20T01:42:14.926Z,8.80
2022-10-20T01:43:18.418Z,9.40
2022-10-20T01:44:20.911Z,8.53
2022-10-20T01:45:24.389Z,9.60
2022-10-20T01:46:26.540Z,9.17
2022-10-20T01:47:28.805Z,9.53
2022-10-20T01:48:32.642Z,8.97
2022-10-20T01:49:34.109Z,8.60
2022-10-20T01:50:35.804Z,9.23
2022-10-20T01:51:37.243Z,8.80
2022-10-20T01:52:39.075Z,9.20
2022-10-20T01:53:40.736Z,9.73
2022-10-20T01:54:42.030Z,9.37
2022-10-20T01:55:43.659Z,9.07
2022-10-20T01:56:51.773Z,9.37
2022-10-20T01:58:11.761Z,9.07
2022-10-20T01:59:25.166Z,9.23
2022-10-20T02:00:26.613Z,9.53
2022-10-20T02:01:44.120Z,9.60
2022-10-20T02:02:54.569Z,9.47
2022-10-20T02:03:57.931Z,9.43
2022-10-20T02:05:01.866Z,9.70
2022-10-20T02:06:03.159Z,9.07
2022-10-20T02:07:08.515Z,9.63
2022-10-20T02:08:29.078Z,8.90
2022-10-20T02:09:30.405Z,9.00
2022-10-20T02:10:34.865Z,8.20
2022-10-20T02:11:39.332Z,9.60
2022-10-20T02:12:41.861Z,8.67
2022-10-20T02:13:43.447Z,9.80
2022-10-20T02:14:45.476Z,8.83
2022-10-20T02:15:55.716Z,8.93
2022-10-20T02:16:59.259Z,9.67
2022-10-20T02:18:03.192Z,9.20
2022-10-20T02:19:05.711Z,9.47
2022-10-20T02:20:07.910Z,9.87
2022-10-20T02:21:10.291Z,8.97
2022-10-20T02:22:13.767Z,9.33
2022-10-20T02:23:15.109Z,9.07
2022-10-20T02:24:20.298Z,8.87
2022-10-20T02:25:21.997Z,9.13
2022-10-20T02:26:26.348Z,9.87
2022-10-20T02:27:32.640Z,9.43
2022-10-20T02:28:35.773Z,9.13
2022-10-20T02:29:39.645Z,9.30
2022-10-20T02:30:41.279Z,9.17
2022-10-20T02:31:43.272Z,9.10
2022-10-20T02:32:49.174Z,8.63
2022-10-20T02:33:51.609Z,9.07
2022-10-20T02:34:52.968Z,9.37
2022-10-20T02:35:58.326Z,9.10
2022-10-20T02:36:59.743Z,9.40
2022-10-20T02:38:01.364Z,9.37
2022-10-20T02:39:02.771Z,8.93
2022-10-20T02:40:04.573Z,9.10
2022-10-20T02:41:05.963Z,8.60
2022-10-20T02:42:07.341Z,9.50
2022-10-20T02:43:08.647Z,9.30
2022-10-20T02:44:10.030Z,9.40
2022-10-20T02:45:11.496Z,9.10
2022-10-20T02:46:13.011Z,8.67
2022-10-20T02:47:14.435Z,9.70
2022-10-20T02:48:15.830Z,9.50
2022-10-20T02:49:17.294Z,9.00
2022-10-20T02:50:18.740Z,9.27
2022-10-20T02:51:20.099Z,9.30
2022-10-20T02:52:21.474Z,8.73
2022-10-20T02:53:22.871Z,9.23
2022-10-20T02:54:24.312Z,9.60
2022-10-20T02:55:25.664Z,9.13
2022-10-20T02:56:28.955Z,8.47
2022-10-20T02:57:32.946Z,9.30
2022-10-20T02:58:34.651Z,9.37
2022-10-20T02:59:36.049Z,8.70
2022-10-20T03:00:37.410Z,9.03
2022-10-20T03:01:38.854Z,8.80
2022-10-20T03:02:40.203Z,8.83
2022-10-20T03:03:41.581Z,9.00
2022-10-20T03:04:42.985Z,8.87
2022-10-20T03:05:44.613Z,9.37
2022-10-20T03:06:46.021Z,8.67
2022-10-20T03:07:47.473Z,9.20
2022-10-20T03:08:48.971Z,8.77
2022-10-20T03:09:50.363Z,8.70
2022-10-20T03:10:51.931Z,8.90
2022-10-20T03:11:53.373Z,9.43
2022-10-20T03:12:54.747Z,8.47
2022-10-20T03:13:56.117Z,9.23
2022-10-20T03:14:57.503Z,9.07
2022-10-20T03:15:59.215Z,9.07
2022-10-20T03:17:00.529Z,9.00
2022-10-20T03:18:01.969Z,9.23
2022-10-20T03:19:05.345Z,8.83
2022-10-20T03:20:08.885Z,8.73
2022-10-20T03:21:10.280Z,8.73
2022-10-20T03:22:11.701Z,9.40
2022-10-20T03:23:15.178Z,9.33
2022-10-20T03:24:19.170Z,8.70
2022-10-20T03:25:20.590Z,9.13
2022-10-20T03:26:25.687Z,9.13
2022-10-20T03:27:27.011Z,8.80
2022-10-20T03:28:28.366Z,8.67
2022-10-20T03:29:29.778Z,9.17
2022-10-20T03:30:31.068Z,9.03
2022-10-20T03:31:32.470Z,8.93
2022-10-20T03:32:34.381Z,9.30
2022-10-20T03:33:36.065Z,8.83
2022-10-20T03:34:37.514Z,9.33
2022-10-20T03:35:38.804Z,9.30
2022-10-20T03:36:40.280Z,8.87
2022-10-20T03:37:41.589Z,8.97
2022-10-20T03:38:43.185Z,9.07
2022-10-20T03:39:44.537Z,10.00
2022-10-20T03:40:45.912Z,9.43
2022-10-20T03:41:47.474Z,9.47
2022-10-20T03:42:49.114Z,9.30
2022-10-20T03:43:50.420Z,8.50
2022-10-20T03:44:51.747Z,10.00
2022-10-20T03:46:01.437Z,9.57
2022-10-20T03:47:02.811Z,8.90
2022-10-20T03:48:04.308Z,9.10
2022-10-20T03:49:05.717Z,9.27
2022-10-20T03:50:07.292Z,9.63
2022-10-20T03:51:11.638Z,9.20
2022-10-20T03:52:12.963Z,8.63
2022-10-20T03:53:14.397Z,9.20
2022-10-20T03:54:15.732Z,9.00
2022-10-20T03:55:18.240Z,9.37
2022-10-20T03:56:20.256Z,9.80
2022-10-20T03:57:21.797Z,9.60
2022-10-20T03:58:23.619Z,9.23
2022-10-20T03:59:28.043Z,9.53
2022-10-20T04:00:31.763Z,9.47
2022-10-20T04:01:37.403Z,9.70
2022-10-20T04:02:40.829Z,8.90
2022-10-20T04:03:42.581Z,9.97
2022-10-20T04:04:43.976Z,9.03
2022-10-20T04:05:45.371Z,9.10
2022-10-20T04:06:46.702Z,9.37
2022-10-20T04:07:48.080Z,9.30
2022-10-20T04:08:49.563Z,9.20
2022-10-20T04:09:51.102Z,9.60
2022-10-20T04:10:52.656Z,8.93
2022-10-20T04:11:54.034Z,9.00
2022-10-20T04:12:58.075Z,8.60
2022-10-20T04:13:59.399Z,8.90
2022-10-20T04:15:00.760Z,8.73
2022-10-20T04:16:02.168Z,8.13
2022-10-20T04:17:03.558Z,9.53
2022-10-20T04:18:05.000Z,8.53
2022-10-20T04:19:06.332Z,8.93
2022-10-20T04:20:07.819Z,9.10
2022-10-20T04:21:09.212Z,9.10
2022-10-20T04:22:10.535Z,8.93
2022-10-20T04:23:11.925Z,8.87
2022-10-20T04:24:13.449Z,9.50
2022-10-20T04:25:14.815Z,9.57
2022-10-20T04:26:16.468Z,8.60
2022-10-20T04:27:17.869Z,8.27
2022-10-20T04:28:20.310Z,8.93
2022-10-20T04:29:21.948Z,8.47
2022-10-20T04:30:23.345Z,8.50
2022-10-20T04:31:24.769Z,9.30
2022-10-20T04:32:26.362Z,9.17
2022-10-20T04:33:27.918Z,9.53
2022-10-20T04:34:29.399Z,9.60
2022-10-20T04:35:30.989Z,9.47
2022-10-20T04:36:32.444Z,9.53
2022-10-20T04:37:34.143Z,9.17
2022-10-20T04:38:36.131Z,8.90
2022-10-20T04:39:37.446Z,9.37
2022-10-20T04:40:39.063Z,9.13
2022-10-20T04:41:40.510Z,9.40
2022-10-20T04:42:41.999Z,9.70
2022-10-20T04:43:43.384Z,9.10
2022-10-20T04:44:44.974Z,9.43
2022-10-20T04:45:46.389Z,8.97
2022-10-20T04:46:48.073Z,9.23
2022-10-20T04:47:49.435Z,9.40
2022-10-20T04:48:50.885Z,9.60
2022-10-20T04:49:52.274Z,9.87
2022-10-20T04:51:10.970Z,9.20
2022-10-20T04:52:12.258Z,9.20
2022-10-20T04:53:13.645Z,9.40
2022-10-20T04:54:14.998Z,9.60
2022-10-20T04:55:16.401Z,9.10
2022-10-20T04:56:19.437Z,9.07
2022-10-20T04:57:20.830Z,9.57
2022-10-20T04:58:22.812Z,9.83
2022-10-20T04:59:24.482Z,9.77
2022-10-20T05:00:26.181Z,9.40
2022-10-20T05:01:28.772Z,9.60
2022-10-20T05:02:30.142Z,9.20
2022-10-20T05:03:31.545Z,10.00
2022-10-20T05:04:32.848Z,9.53
2022-10-20T05:05:34.251Z,9.77
2022-10-20T05:06:35.587Z,9.97
2022-10-20T05:07:37.342Z,10.23
2022-10-20T05:08:39.537Z,10.30
2022-10-20T05:09:40.937Z,10.73
2022-10-20T05:10:42.481Z,10.20
2022-10-20T05:11:44.059Z,10.63
2022-10-20T05:12:45.465Z,10.37
2022-10-20T05:13:46.975Z,10.63
2022-10-20T05:14:50.446Z,10.10
2022-10-20T05:15:52.617Z,10.53
2022-10-20T05:16:54.010Z,10.00
2022-10-20T05:17:55.342Z,10.37
2022-10-20T05:18:58.015Z,10.50
2022-10-20T05:19:59.351Z,10.17
2022-10-20T05:21:08.993Z,11.17
2022-10-20T05:22:11.294Z,11.13
2022-10-20T05:23:12.659Z,10.20
2022-10-20T05:24:18.330Z,11.00
2022-10-20T05:25:36.072Z,10.80
2022-10-20T05:26:38.310Z,11.00
2022-10-20T05:27:39.654Z,11.43
2022-10-20T05:28:45.203Z,11.80
2022-10-20T05:29:46.572Z,10.97
2022-10-20T05:30:48.037Z,11.10
2022-10-20T05:31:49.445Z,12.10
2022-10-20T05:32:50.869Z,10.97
2022-10-20T05:33:53.781Z,12.37
2022-10-20T05:34:55.242Z,11.20
2022-10-20T05:35:56.798Z,11.67
2022-10-20T05:36:58.150Z,11.17
2022-10-20T05:37:59.576Z,12.37
2022-10-20T05:39:00.950Z,12.47
2022-10-20T05:40:03.553Z,12.47
2022-10-20T05:41:05.852Z,11.80
2022-10-20T05:42:07.177Z,12.70
2022-10-20T05:43:08.560Z,12.33
2022-10-20T05:44:11.596Z,11.53
2022-10-20T05:45:12.945Z,11.77
2022-10-20T05:46:14.300Z,12.60
2022-10-20T05:47:15.705Z,13.00
2022-10-20T05:48:17.013Z,12.37
2022-10-20T05:49:18.373Z,11.27
2022-10-20T05:50:19.712Z,13.70
2022-10-20T05:51:22.169Z,12.57
2022-10-20T05:52:23.487Z,13.37
2022-10-20T05:53:24.802Z,12.40
2022-10-20T05:54:26.153Z,12.67
2022-10-20T05:55:27.546Z,12.67
2022-10-20T05:56:29.685Z,12.57
2022-10-20T05:57:31.000Z,12.50
2022-10-20T05:58:32.608Z,12.63
2022-10-20T05:59:33.907Z,13.20
2022-10-20T06:00:42.150Z,12.37
2022-10-20T06:01:49.590Z,13.43
2022-10-20T06:02:53.666Z,13.03
2022-10-20T06:03:59.118Z,14.47
2022-10-20T06:05:00.489Z,13.97
2022-10-20T06:06:01.877Z,14.10
2022-10-20T06:07:05.658Z,13.77
2022-10-20T06:08:07.140Z,14.10
2022-10-20T06:09:08.619Z,13.20
2022-10-20T06:10:10.241Z,13.63
2022-10-20T06:11:13.215Z,14.53
2022-10-20T06:12:14.603Z,13.83
2022-10-20T06:13:15.930Z,14.13
2022-10-20T06:14:17.822Z,13.80
2022-10-20T06:15:19.188Z,12.83
2022-10-20T06:16:21.690Z,12.47
2022-10-20T06:17:22.999Z,13.20
2022-10-20T06:18:24.351Z,14.20
2022-10-20T06:19:25.985Z,14.07
2022-10-20T06:20:27.383Z,14.53
2022-10-20T06:21:29.824Z,14.13
2022-10-20T06:22:31.212Z,14.00
2022-10-20T06:23:32.659Z,14.17
2022-10-20T06:24:34.192Z,13.80
2022-10-20T06:25:35.575Z,14.60
2022-10-20T06:26:37.828Z,13.93
2022-10-20T06:27:39.171Z,15.00
2022-10-20T06:28:40.985Z,15.37
2022-10-20T06:29:42.372Z,15.07
2022-10-20T06:30:43.739Z,15.17
2022-10-20T06:31:46.233Z,15.40
2022-10-20T06:32:47.623Z,15.47
2022-10-20T06:33:49.372Z,15.03
2022-10-20T06:34:50.762Z,14.57
2022-10-20T06:35:52.151Z,15.10
2022-10-20T06:36:53.649Z,14.77
2022-10-20T06:37:54.974Z,15.27
2022-10-20T06:38:57.795Z,15.40
2022-10-20T06:39:59.125Z,14.03
2022-10-20T06:41:01.345Z,15.40
2022-10-20T06:42:09.489Z,15.03
2022-10-20T06:43:19.553Z,16.43
2022-10-20T06:44:22.488Z,14.50
2022-10-20T06:45:24.011Z,14.63
2022-10-20T06:46:29.059Z,14.67
2022-10-20T06:47:30.892Z,15.43
2022-10-20T06:48:33.168Z,15.80
2022-10-20T06:49:34.486Z,15.23
2022-10-20T06:50:35.855Z,14.90
2022-10-20T06:51:37.581Z,15.33
2022-10-20T06:52:39.225Z,14.97
2022-10-20T06:53:44.066Z,15.80
2022-10-20T06:54:48.014Z,15.83
2022-10-20T06:55:55.316Z,15.83
2022-10-20T06:56:56.623Z,15.83
2022-10-20T06:57:57.966Z,14.97
2022-10-20T06:58:59.745Z,15.80
2022-10-20T07:00:01.033Z,16.17
2022-10-20T07:01:10.049Z,15.17
2022-10-20T07:02:12.579Z,15.97
2022-10-20T07:03:13.955Z,15.53
2022-10-20T07:04:15.425Z,15.37
2022-10-20T07:05:16.754Z,14.60
2022-10-20T07:06:19.671Z,14.33
2022-10-20T07:07:21.021Z,15.33
2022-10-20T07:08:22.770Z,14.13
2022-10-20T07:09:24.095Z,15.30
2022-10-20T07:10:25.532Z,15.50
2022-10-20T07:11:27.911Z,15.57
2022-10-20T07:12:29.265Z,14.63
2022-10-20T07:13:30.780Z,15.43
2022-10-20T07:14:32.514Z,14.33
2022-10-20T07:15:34.089Z,14.30
2022-10-20T07:16:35.736Z,14.40
2022-10-20T07:17:37.049Z,14.73
2022-10-20T07:18:38.588Z,14.87
2022-10-20T07:19:39.913Z,14.17
2022-10-20T07:20:41.205Z,14.73
2022-10-20T07:21:45.518Z,14.43
2022-10-20T07:22:47.284Z,14.70
2022-10-20T07:23:49.172Z,14.50
2022-10-20T07:24:50.529Z,14.07
2022-10-20T07:25:51.899Z,14.63
2022-10-20T07:26:53.211Z,14.03
2022-10-20T07:27:54.505Z,14.50
2022-10-20T07:28:56.956Z,13.97
2022-10-20T07:29:58.304Z,14.77
2022-10-20T07:31:06.373Z,13.93
2022-10-20T07:32:07.685Z,13.63
2022-10-20T07:33:09.282Z,14.07
2022-10-20T07:34:24.890Z,13.67
2022-10-20T07:35:26.775Z,14.27
2022-10-20T07:36:33.489Z,14.27
2022-10-20T07:37:37.106Z,13.90
2022-10-20T07:38:38.825Z,13.87
2022-10-20T07:39:40.138Z,15.23
2022-10-20T07:40:41.489Z,13.67
2022-10-20T07:41:47.660Z,14.17
2022-10-20T07:42:49.064Z,13.40
2022-10-20T07:43:50.543Z,14.13
2022-10-20T07:44:51.878Z,13.60
2022-10-20T07:45:53.192Z,13.73
2022-10-20T07:46:54.543Z,13.20
2022-10-20T07:47:55.836Z,14.37
2022-10-20T07:49:02.755Z,14.23
2022-10-20T07:50:12.991Z,14.33
2022-10-20T07:51:15.504Z,14.17
2022-10-20T07:52:17.015Z,14.57
2022-10-20T07:53:18.415Z,14.20
2022-10-20T07:54:19.833Z,13.63
2022-10-20T07:55:37.551Z,13.47
2022-10-20T07:56:40.941Z,12.43
2022-10-20T07:57:42.340Z,12.90
2022-10-20T07:58:43.694Z,13.70
2022-10-20T07:59:47.542Z,13.97
2022-10-20T08:00:48.892Z,13.30
2022-10-20T08:01:51.830Z,12.20
2022-10-20T08:02:54.868Z,13.60
2022-10-20T08:03:56.535Z,13.70
2022-10-20T08:05:00.728Z,12.40
2022-10-20T08:06:02.507Z,13.57
2022-10-20T08:07:03.932Z,13.43
2022-10-20T08:08:05.553Z,13.30
2022-10-20T08:09:07.412Z,12.43
2022-10-20T08:10:09.358Z,12.67
2022-10-20T08:11:10.960Z,13.00
2022-10-20T08:12:12.426Z,12.60
2022-10-20T08:13:14.043Z,12.20
2022-10-20T08:14:19.762Z,11.23
2022-10-20T08:15:21.626Z,11.50
2022-10-20T08:16:25.612Z,11.50
2022-10-20T08:17:27.582Z,10.80
2022-10-20T08:18:29.026Z,11.60
2022-10-20T08:20:48.829Z,11.03
2022-10-20T08:21:50.164Z,10.43
2022-10-20T08:22:51.523Z,11.73
2022-10-20T08:23:52.837Z,11.00
2022-10-20T08:24:54.261Z,11.57
2022-10-20T08:25:55.995Z,11.20
2022-10-20T08:26:57.384Z,10.83
2022-10-20T08:29:05.051Z,10.50
2022-10-20T08:30:23.060Z,10.90
2022-10-20T08:31:25.738Z,10.70
2022-10-20T08:32:27.076Z,10.83
2022-10-20T08:33:28.394Z,11.03
2022-10-20T08:34:29.740Z,11.70
2022-10-20T08:35:31.095Z,11.47
2022-10-20T08:36:32.468Z,10.77
2022-10-20T08:37:34.304Z,11.43
2022-10-20T08:38:36.106Z,11.80
2022-10-20T08:39:37.479Z,11.63
2022-10-20T08:40:41.046Z,12.00
2022-10-20T08:42:06.234Z,11.93
2022-10-20T08:43:05.790Z,11.30
2022-10-20T08:44:07.346Z,11.27
2022-10-20T08:45:13.772Z,10.67
2022-10-20T08:47:32.607Z,9.93
2022-10-20T08:48:35.049Z,9.93
2022-10-20T08:49:36.476Z,9.50
2022-10-20T08:50:42.806Z,9.30
2022-10-20T08:51:44.284Z,10.00
2022-10-20T08:52:46.602Z,9.30
2022-10-20T08:53:49.331Z,9.27
2022-10-20T08:54:52.603Z,9.77
2022-10-20T08:55:54.737Z,9.63
2022-10-20T08:56:56.147Z,9.03
2022-10-20T08:58:00.454Z,8.67
2022-10-20T08:59:03.277Z,9.47
2022-10-20T09:00:19.095Z,9.57
2022-10-20T09:01:23.475Z,9.10
2022-10-20T09:02:25.546Z,9.43
2022-10-20T09:03:32.741Z,8.77
2022-10-20T09:04:36.127Z,9.90
2022-10-20T09:05:40.307Z,8.70
2022-10-20T09:06:43.932Z,8.73
2022-10-20T09:07:48.329Z,9.70
2022-10-20T09:08:50.415Z,9.13
2022-10-20T09:09:52.283Z,8.70
2022-10-20T09:10:54.342Z,9.00
2022-10-20T09:12:00.939Z,9.73
2022-10-20T09:13:02.930Z,9.17
2022-10-20T09:14:04.265Z,9.33
2022-10-20T09:15:05.836Z,8.47
2022-10-20T09:16:18.271Z,9.47
2022-10-20T09:17:28.887Z,8.63
2022-10-20T09:18:30.685Z,9.13
2022-10-20T09:19:32.395Z,9.10
2022-10-20T09:20:35.980Z,9.27
2022-10-20T09:21:38.387Z,8.07
2022-10-20T09:22:39.827Z,8.23
2022-10-20T09:24:27.159Z,8.17
2022-10-20T09:25:31.175Z,8.23
2022-10-20T09:26:58.232Z,9.17
2022-10-20T09:28:00.781Z,8.40
2022-10-20T09:29:14.017Z,8.97
2022-10-20T09:30:18.429Z,8.33
2022-10-20T09:31:21.100Z,8.43
2022-10-20T09:32:48.766Z,8.13
2022-10-20T09:33:50.239Z,8.73
2022-10-20T09:34:51.558Z,8.23
2022-10-20T09:35:52.917Z,7.93
2022-10-20T09:37:06.509Z,8.60
2022-10-20T09:38:07.822Z,9.10
2022-10-20T09:39:17.129Z,8.70
2022-10-20T09:40:18.996Z,8.13
2022-10-20T09:41:21.489Z,8.57
2022-10-20T09:42:25.292Z,7.83
2022-10-20T09:43:27.148Z,8.33
2022-10-20T09:44:30.680Z,8.30
2022-10-20T09:45:33.032Z,7.77
2022-10-20T09:46:39.090Z,7.90
2022-10-20T09:47:42.699Z,7.90
2022-10-20T09:48:49.630Z,8.57
2022-10-20T09:50:00.997Z,8.40
2022-10-20T09:51:05.669Z,7.80
2022-10-20T09:52:15.826Z,9.23
2022-10-20T09:53:22.080Z,8.27
2022-10-20T09:54:24.593Z,9.20
2022-10-20T09:55:28.196Z,8.43
2022-10-20T09:56:37.145Z,8.57
2022-10-20T09:57:38.633Z,8.70
2022-10-20T09:58:42.010Z,8.90
2022-10-20T09:59:45.632Z,7.57
2022-10-20T10:00:54.838Z,8.73
2022-10-20T10:01:58.888Z,8.43
2022-10-20T10:03:14.521Z,8.77
2022-10-20T10:04:30.265Z,8.87
2022-10-20T10:05:32.902Z,8.03
2022-10-20T10:06:37.162Z,8.77
2022-10-20T10:07:38.520Z,7.90
2022-10-20T10:08:44.707Z,8.80
2022-10-20T10:09:51.184Z,8.00
2022-10-20T10:11:03.756Z,8.20
2022-10-20T10:12:06.130Z,9.27
2022-10-20T10:13:20.075Z,8.93
2022-10-20T10:14:23.821Z,8.37
2022-10-20T10:15:29.653Z,9.47
2022-10-20T10:16:40.535Z,9.23
2022-10-20T10:17:42.552Z,8.27
2022-10-20T10:18:48.357Z,8.23
2022-10-20T10:19:52.644Z,9.43
2022-10-20T10:20:58.939Z,9.20
2022-10-20T10:22:01.529Z,9.27
2022-10-20T10:23:15.093Z,9.27
2022-10-20T10:24:29.486Z,8.90
2022-10-20T10:25:30.802Z,8.20
2022-10-20T10:26:43.402Z,8.53
2022-10-20T10:28:06.846Z,8.67
2022-10-20T10:29:18.903Z,8.10
2022-10-20T10:30:31.830Z,7.17
2022-10-20T10:31:33.374Z,7.50
2022-10-20T10:32:43.138Z,6.93
2022-10-20T10:33:44.577Z,7.77
2022-10-20T10:34:57.854Z,7.37
2022-10-20T10:36:02.073Z,7.33
2022-10-20T10:37:03.440Z,7.20
2022-10-20T10:38:04.776Z,7.47
2022-10-20T10:39:09.789Z,7.73
2022-10-20T10:40:15.615Z,7.43
2022-10-20T10:41:36.177Z,7.60
2022-10-20T10:42:40.366Z,7.73
2022-10-20T10:43:49.310Z,8.10
2022-10-20T10:44:56.356Z,7.50
2022-10-20T10:46:00.099Z,7.23
2022-10-20T10:47:24.438Z,7.20
2022-10-20T10:48:48.149Z,8.00
2022-10-20T10:49:53.702Z,7.43
2022-10-20T10:50:59.884Z,7.23
2022-10-20T10:52:11.201Z,7.23
2022-10-20T10:53:17.925Z,8.00
2022-10-20T10:54:37.747Z,7.93
2022-10-20T10:55:58.357Z,7.43
2022-10-20T10:57:03.430Z,7.03
2022-10-20T10:58:15.823Z,7.00
2022-10-20T10:59:17.117Z,7.77
2022-10-20T11:00:36.700Z,7.03
2022-10-20T11:01:38.095Z,8.20
2022-10-20T11:02:48.475Z,7.50
2022-10-20T11:04:02.216Z,6.80
2022-10-20T11:06:28.229Z,7.10
2022-10-20T11:07:34.843Z,7.03
2022-10-20T11:09:02.552Z,6.90
2022-10-20T11:10:14.190Z,7.43
2022-10-20T11:11:18.256Z,6.90
2022-10-20T11:12:19.513Z,7.73
2022-10-20T11:13:26.154Z,8.87
2022-10-20T11:14:45.298Z,8.40
2022-10-20T11:15:46.630Z,10.13
2022-10-20T11:16:55.927Z,8.10
2022-10-20T11:18:23.468Z,8.17
2022-10-20T11:19:35.510Z,6.60
2022-10-20T11:20:39.886Z,7.03
2022-10-20T11:21:51.554Z,7.93
2022-10-20T11:23:11.813Z,7.43
2022-10-20T11:24:51.864Z,7.60
2022-10-20T11:26:05.173Z,6.27
2022-10-20T11:27:09.392Z,6.63
2022-10-20T11:28:25.325Z,7.83
2022-10-20T11:29:26.609Z,7.13
2022-10-20T11:30:28.920Z,9.87
2022-10-20T11:31:34.450Z,11.00
2022-10-20T11:32:51.000Z,9.80
2022-10-20T11:33:56.636Z,8.87
2022-10-20T11:35:00.888Z,7.40
2022-10-20T11:36:10.640Z,7.47
2022-10-20T11:37:21.558Z,7.57
2022-10-20T11:38:22.847Z,6.90
2022-10-20T11:39:26.220Z,7.47
2022-10-20T11:40:30.431Z,7.63
2022-10-20T11:41:51.978Z,7.80
2022-10-20T11:43:12.040Z,9.50
2022-10-20T11:44:13.526Z,10.13
2022-10-20T11:45:33.523Z,9.23
2022-10-20T11:46:37.903Z,7.87
2022-10-20T11:47:42.138Z,8.73
2022-10-20T11:48:45.477Z,8.80
2022-10-20T11:49:46.861Z,8.33
2022-10-20T11:50:50.953Z,8.30
2022-10-20T11:51:52.265Z,8.70
2022-10-20T11:53:09.589Z,8.90
2022-10-20T11:54:30.903Z,8.03
2022-10-20T11:55:41.210Z,8.23
2022-10-20T11:56:48.343Z,7.90
2022-10-20T11:57:53.835Z,8.10
2022-10-20T11:59:11.948Z,8.43
2022-10-20T12:01:40.650Z,7.60
2022-10-20T12:02:42.038Z,7.67
2022-10-20T12:04:18.867Z,8.57
2022-10-20T12:05:28.199Z,7.97
2022-10-20T12:06:32.126Z,8.00
2022-10-20T12:07:54.105Z,8.67
2022-10-20T12:09:05.099Z,9.03
2022-10-20T12:10:06.435Z,8.93
2022-10-20T12:11:21.476Z,9.83
2022-10-20T12:12:28.310Z,7.93
2022-10-20T12:13:35.265Z,8.23
2022-10-20T12:14:42.593Z,8.33
2022-10-20T12:15:45.234Z,8.70
2022-10-20T12:17:06.847Z,8.40
2022-10-20T12:18:16.637Z,9.17
2022-10-20T12:19:19.500Z,8.00
2022-10-20T12:20:20.792Z,7.60
2022-10-20T12:21:42.088Z,8.20
2022-10-20T12:22:43.498Z,8.40
2022-10-20T12:23:45.323Z,8.87
2022-10-20T12:24:49.665Z,8.63
2022-10-20T12:25:51.298Z,8.27
2022-10-20T12:27:03.014Z,7.97
2022-10-20T12:28:19.703Z,7.13
2022-10-20T12:29:47.395Z,7.50
2022-10-20T12:30:51.720Z,7.83
2022-10-20T12:32:11.927Z,7.83
2022-10-20T12:33:18.665Z,7.40
2022-10-20T12:34:23.499Z,8.00
2022-10-20T12:35:24.843Z,7.70
2022-10-20T12:36:37.149Z,7.83
2022-10-20T12:37:44.764Z,8.17
2022-10-20T12:38:50.616Z,8.40
2022-10-20T12:39:52.992Z,8.43
2022-10-20T12:40:58.989Z,8.10
2022-10-20T12:42:01.879Z,8.63
2022-10-20T12:43:03.397Z,10.57
2022-10-20T12:44:05.998Z,11.53
2022-10-20T12:45:19.534Z,11.10
2022-10-20T12:46:22.634Z,8.97
2022-10-20T12:47:25.429Z,8.73
2022-10-20T12:48:27.060Z,8.37
2022-10-20T12:49:30.971Z,7.90
2022-10-20T12:50:35.382Z,7.67
2022-10-20T12:51:55.965Z,8.17
2022-10-20T12:52:58.736Z,7.27
2022-10-20T12:54:02.345Z,7.03
2022-10-20T12:55:08.777Z,7.83
2022-10-20T12:56:11.584Z,7.40
2022-10-20T12:57:35.202Z,7.43
2022-10-20T12:59:00.018Z,7.50
2022-10-20T13:00:01.937Z,8.03
2022-10-20T13:01:05.862Z,7.80
2022-10-20T13:02:10.373Z,7.90
2022-10-20T13:03:30.483Z,8.10
2022-10-20T13:04:50.893Z,7.33
2022-10-20T13:05:52.421Z,8.10
2022-10-20T13:06:54.009Z,7.50
2022-10-20T13:07:59.866Z,7.80
2022-10-20T13:09:04.932Z,7.97
2022-10-20T13:10:25.074Z,7.20
2022-10-20T13:11:35.727Z,7.50
2022-10-20T13:12:39.579Z,8.13
2022-10-20T13:13:45.331Z,7.43
2022-10-20T13:14:55.700Z,8.07
2022-10-20T13:16:03.581Z,7.97
2022-10-20T13:17:09.366Z,7.30
2022-10-20T13:18:13.495Z,7.90
2022-10-20T13:19:19.223Z,8.17
2022-10-20T13:20:25.251Z,8.13
2022-10-20T13:21:31.618Z,8.23
2022-10-20T13:22:33.056Z,8.53
2022-10-20T13:23:37.319Z,9.40
2022-10-20T13:24:42.705Z,8.90
2022-10-20T13:25:51.574Z,9.63
2022-10-20T13:26:59.738Z,9.10
2022-10-20T13:28:15.089Z,10.60
2022-10-20T13:29:36.930Z,10.13
2022-10-20T13:30:48.750Z,8.60
2022-10-20T13:31:53.481Z,8.73
2022-10-20T13:33:17.954Z,9.43
2022-10-20T13:34:30.766Z,10.07
2022-10-20T13:35:53.326Z,8.93
2022-10-20T13:36:54.832Z,9.30
2022-10-20T13:37:59.354Z,9.27
2022-10-20T13:39:04.551Z,9.70
2022-10-20T13:40:24.150Z,9.30
2022-10-20T13:41:31.956Z,8.97
2022-10-20T13:42:42.819Z,9.30
2022-10-20T13:43:57.556Z,8.97
2022-10-20T13:45:02.889Z,8.33
2022-10-20T13:46:23.302Z,8.97
2022-10-20T13:47:27.844Z,8.50
2022-10-20T13:48:29.352Z,9.93
2022-10-20T13:49:40.143Z,9.40
2022-10-20T13:50:43.866Z,11.30
2022-10-20T13:51:48.818Z,10.90
2022-10-20T13:52:52.391Z,9.90
2022-10-20T13:53:56.119Z,10.30
2022-10-20T13:54:58.505Z,10.60
2022-10-20T13:56:15.409Z,11.03
2022-10-20T13:57:23.182Z,10.03
2022-10-20T13:58:25.068Z,10.63
2022-10-20T13:59:28.074Z,10.37
2022-10-20T14:00:30.910Z,9.23
2022-10-20T14:01:33.543Z,9.13
2022-10-20T14:02:35.984Z,8.53
2022-10-20T14:03:42.421Z,8.60
2022-10-20T14:04:43.831Z,7.60
2022-10-20T14:05:45.416Z,8.00
2022-10-20T14:06:52.276Z,7.47
2022-10-20T14:07:53.895Z,7.70
2022-10-20T14:08:56.787Z,7.87
2022-10-20T14:09:58.440Z,7.63
2022-10-20T14:11:08.482Z,7.30
2022-10-20T14:12:14.942Z,7.07
2022-10-20T14:13:18.665Z,7.33
2022-10-20T14:14:24.548Z,7.70
2022-10-20T14:15:30.803Z,8.37
2022-10-20T14:16:33.179Z,7.23
2022-10-20T14:17:38.542Z,6.90
2022-10-20T14:18:42.133Z,7.73
2022-10-20T14:19:46.084Z,7.90
2022-10-20T14:21:14.058Z,7.67
2022-10-20T14:22:15.527Z,7.27